createdAt,value
2022-11-30T00:02:30.475Z,36.92
2022-11-30T00:05:02.181Z,39.83
2022-11-30T00:07:43.082Z,40.00
2022-11-30T00:10:15.252Z,39.75
2022-11-30T00:12:50.225Z,41.65
2022-11-30T00:15:21.828Z,42.40
2022-11-30T00:17:57.894Z,42.03
2022-11-30T00:20:32.476Z,50.20
2022-11-30T00:23:04.116Z,48.08
2022-11-30T00:25:36.596Z,42.80
2022-11-30T00:28:11.785Z,43.10
2022-11-30T00:30:43.423Z,45.22
2022-11-30T00:33:15.044Z,41.78
2022-11-30T00:35:56.319Z,41.05
2022-11-30T00:38:28.643Z,42.33
2022-11-30T00:41:01.672Z,37.97
2022-11-30T00:43:33.359Z,39.70
2022-11-30T00:46:05.468Z,39.50
2022-11-30T00:48:38.267Z,38.83
2022-11-30T00:51:11.955Z,37.53
2022-11-30T00:53:50.155Z,33.33
2022-11-30T00:56:24.659Z,40.00
2022-11-30T00:59:00.456Z,33.75
2022-11-30T01:01:32.568Z,35.60
2022-11-30T01:04:07.602Z,36.17
2022-11-30T01:06:42.288Z,36.67
2022-11-30T01:09:16.532Z,33.58
2022-11-30T01:11:48.120Z,33.60
2022-11-30T01:14:20.102Z,33.47
2022-11-30T01:16:57.960Z,33.63
2022-11-30T01:19:30.346Z,33.80
2022-11-30T01:22:05.433Z,31.75
2022-11-30T01:24:37.084Z,32.88
2022-11-30T01:27:09.004Z,32.55
2022-11-30T01:29:40.907Z,32.50
2022-11-30T01:32:12.466Z,33.15
2022-11-30T01:34:44.300Z,31.80
2022-11-30T01:37:16.183Z,33.42
2022-11-30T01:39:47.792Z,30.70
2022-11-30T01:42:20.299Z,32.90
2022-11-30T01:44:57.369Z,30.83
2022-11-30T01:47:39.352Z,35.92
2022-11-30T01:50:37.316Z,32.08
2022-11-30T01:53:10.852Z,33.30
2022-11-30T01:55:48.552Z,23.92
2022-11-30T01:58:29.900Z,35.05
2022-11-30T02:01:01.662Z,30.23
2022-11-30T02:03:49.071Z,28.70
2022-11-30T02:06:25.125Z,32.50
2022-11-30T02:08:56.853Z,30.60
2022-11-30T02:11:28.728Z,30.33
2022-11-30T02:14:11.136Z,28.48
2022-11-30T02:16:54.664Z,31.65
2022-11-30T02:19:51.008Z,28.75
2022-11-30T02:22:50.479Z,29.52
2022-11-30T02:26:06.063Z,27.95
2022-11-30T02:28:40.349Z,29.92
2022-11-30T02:31:20.112Z,27.55
2022-11-30T02:33:53.982Z,29.58
2022-11-30T02:36:28.691Z,30.95
2022-11-30T02:39:00.932Z,28.77
2022-11-30T02:41:39.666Z,28.23
2022-11-30T02:44:12.216Z,27.75
2022-11-30T02:46:58.915Z,29.60
2022-11-30T02:49:34.383Z,29.83
2022-11-30T02:52:07.696Z,32.00
2022-11-30T02:54:42.376Z,29.90
2022-11-30T02:57:19.139Z,31.20
2022-11-30T02:59:50.980Z,28.70
2022-11-30T03:02:22.690Z,32.58
2022-11-30T03:04:54.425Z,29.65
2022-11-30T03:07:26.110Z,30.00
2022-11-30T03:09:58.844Z,32.78
2022-11-30T03:12:30.459Z,31.45
2022-11-30T03:15:04.592Z,31.00
2022-11-30T03:17:37.272Z,29.35
2022-11-30T03:20:09.877Z,32.75
2022-11-30T03:22:44.463Z,30.73
2022-11-30T03:25:16.091Z,28.38
2022-11-30T03:27:49.055Z,34.65
2022-11-30T03:30:21.023Z,32.70
2022-11-30T03:32:53.172Z,29.17
2022-11-30T03:35:27.578Z,28.20
2022-11-30T03:37:59.221Z,31.60
2022-11-30T03:40:37.636Z,28.77
2022-11-30T03:43:09.261Z,30.88
2022-11-30T03:45:44.716Z,29.83
2022-11-30T03:48:16.314Z,28.65
2022-11-30T03:50:50.066Z,31.35
2022-11-30T03:53:23.404Z,27.42
2022-11-30T03:55:57.701Z,32.65
2022-11-30T03:58:29.970Z,30.63
2022-11-30T04:01:17.250Z,31.63
2022-11-30T04:03:50.246Z,35.97
2022-11-30T04:06:22.251Z,29.60
2022-11-30T04:08:53.993Z,29.77
2022-11-30T04:11:25.992Z,30.88
2022-11-30T04:13:58.912Z,30.02
2022-11-30T04:16:30.648Z,33.22
2022-11-30T04:19:02.859Z,35.08
2022-11-30T04:21:37.188Z,33.42
2022-11-30T04:24:09.120Z,26.38
2022-11-30T04:26:46.782Z,33.53
2022-11-30T04:29:18.332Z,31.10
2022-11-30T04:31:49.950Z,35.00
2022-11-30T04:34:21.598Z,33.08
2022-11-30T04:37:00.216Z,34.20
2022-11-30T04:39:42.182Z,33.10
2022-11-30T04:42:13.806Z,31.05
2022-11-30T04:44:47.970Z,31.58
2022-11-30T04:47:19.770Z,34.92
2022-11-30T04:49:53.322Z,31.00
2022-11-30T04:52:28.898Z,33.10
2022-11-30T04:55:04.889Z,32.75
2022-11-30T04:57:36.555Z,32.50
2022-11-30T05:00:08.886Z,32.78
2022-11-30T05:02:40.525Z,31.77
2022-11-30T05:05:13.512Z,34.08
2022-11-30T05:07:57.174Z,31.77
2022-11-30T05:10:30.318Z,30.08
2022-11-30T05:13:05.202Z,29.42
2022-11-30T05:15:36.793Z,31.58
2022-11-30T05:18:20.316Z,30.55
2022-11-30T05:20:58.941Z,31.80
2022-11-30T05:23:30.535Z,33.30
2022-11-30T05:26:03.009Z,34.22
2022-11-30T05:28:37.351Z,33.25
2022-11-30T05:31:09.182Z,35.67
2022-11-30T05:33:40.952Z,35.28
2022-11-30T05:36:12.558Z,36.05
2022-11-30T05:38:44.963Z,33.70
2022-11-30T05:41:16.757Z,36.35
2022-11-30T05:43:48.464Z,33.72
2022-11-30T05:46:20.081Z,34.65
2022-11-30T05:48:51.704Z,34.92
2022-11-30T05:51:23.348Z,35.92
2022-11-30T05:54:00.199Z,36.78
2022-11-30T05:56:31.925Z,33.88
2022-11-30T05:59:05.686Z,32.75
2022-11-30T06:01:37.310Z,34.78
2022-11-30T06:04:11.170Z,37.40
2022-11-30T06:06:45.957Z,35.13
2022-11-30T06:11:49.106Z,37.75
2022-11-30T06:14:20.743Z,41.97
2022-11-30T06:16:52.415Z,36.67
2022-11-30T06:19:25.154Z,39.33
2022-11-30T06:21:56.795Z,38.63
2022-11-30T06:24:28.412Z,35.72
2022-11-30T06:27:02.375Z,38.00
2022-11-30T06:29:34.044Z,36.67
2022-11-30T06:32:07.711Z,38.80
2022-11-30T06:34:42.413Z,38.08
2022-11-30T06:37:14.045Z,38.17
2022-11-30T06:42:39.363Z,37.05
2022-11-30T06:45:11.323Z,35.17
2022-11-30T06:47:42.897Z,37.67
2022-11-30T06:50:15.567Z,37.13
2022-11-30T06:52:47.499Z,35.65
2022-11-30T06:55:19.593Z,36.97
2022-11-30T06:57:51.163Z,38.63
2022-11-30T07:00:25.712Z,37.50
2022-11-30T07:02:57.313Z,38.60
2022-11-30T07:05:30.512Z,36.25
2022-11-30T07:08:02.346Z,39.25
2022-11-30T07:10:34.185Z,41.35
2022-11-30T07:13:05.753Z,34.47
2022-11-30T07:15:37.731Z,37.75
2022-11-30T07:18:10.393Z,37.40
2022-11-30T07:20:42.563Z,39.60
2022-11-30T07:23:33.041Z,34.90
2022-11-30T07:26:07.485Z,38.17
2022-11-30T07:28:46.144Z,33.53
2022-11-30T07:31:25.511Z,38.53
2022-11-30T07:34:01.818Z,38.33
2022-11-30T07:36:38.984Z,33.38
2022-11-30T07:39:13.682Z,38.55
2022-11-30T07:41:45.705Z,34.72
2022-11-30T07:44:17.275Z,36.78
2022-11-30T07:46:48.878Z,36.72
2022-11-30T07:49:22.646Z,44.03
2022-11-30T07:51:54.331Z,35.47
2022-11-30T07:54:28.298Z,33.93
2022-11-30T07:57:00.911Z,34.35
2022-11-30T07:59:35.555Z,35.15
2022-11-30T08:02:07.299Z,34.00
2022-11-30T08:04:41.874Z,40.53
2022-11-30T08:07:15.095Z,36.70
2022-11-30T08:09:50.609Z,35.60
2022-11-30T08:12:25.043Z,36.75
2022-11-30T08:15:19.346Z,34.13
2022-11-30T08:17:50.719Z,33.53
2022-11-30T08:20:22.757Z,39.28
2022-11-30T08:22:58.627Z,36.13
2022-11-30T08:25:31.515Z,40.05
2022-11-30T08:28:07.744Z,37.90
2022-11-30T08:30:39.985Z,38.35
2022-11-30T08:33:14.674Z,37.58
2022-11-30T08:35:46.482Z,37.25
2022-11-30T08:38:18.201Z,41.00
2022-11-30T08:40:49.813Z,36.38
2022-11-30T08:43:21.348Z,38.88
2022-11-30T08:45:54.479Z,40.17
2022-11-30T08:48:31.871Z,38.40
2022-11-30T08:51:06.693Z,38.72
2022-11-30T08:53:45.624Z,39.50
2022-11-30T08:56:27.310Z,35.80
2022-11-30T08:58:59.185Z,33.40
2022-11-30T09:01:33.313Z,32.50
2022-11-30T09:04:05.709Z,34.97
2022-11-30T09:06:38.162Z,31.95
2022-11-30T09:09:09.800Z,32.40
2022-11-30T09:11:48.484Z,32.63
2022-11-30T09:14:20.290Z,30.08
2022-11-30T09:16:54.091Z,30.15
2022-11-30T09:19:26.222Z,30.70
2022-11-30T09:21:58.069Z,27.75
2022-11-30T09:24:29.942Z,29.80
2022-11-30T09:27:14.889Z,29.05
2022-11-30T09:29:47.970Z,30.45
2022-11-30T09:32:19.615Z,30.67
2022-11-30T09:34:51.446Z,30.80
2022-11-30T09:37:23.820Z,30.23
2022-11-30T09:39:58.287Z,28.13
2022-11-30T09:42:43.517Z,33.28
2022-11-30T09:45:25.553Z,34.70
2022-11-30T09:48:32.707Z,32.10
2022-11-30T09:51:21.052Z,29.23
2022-11-30T09:54:02.405Z,28.63
2022-11-30T09:56:39.165Z,36.28
2022-11-30T09:59:26.490Z,28.00
2022-11-30T10:02:09.655Z,29.50
2022-11-30T10:04:42.315Z,31.88
2022-11-30T10:08:07.826Z,30.63
2022-11-30T10:10:43.349Z,32.47
2022-11-30T10:13:30.488Z,30.85
2022-11-30T10:16:46.440Z,29.83
2022-11-30T10:19:47.775Z,27.40
2022-11-30T10:22:53.905Z,25.65
2022-11-30T10:25:40.400Z,32.33
2022-11-30T10:28:47.731Z,27.38
2022-11-30T10:31:34.677Z,28.40
2022-11-30T10:34:32.440Z,28.90
2022-11-30T10:37:06.592Z,31.75
2022-11-30T10:40:03.026Z,25.10
2022-11-30T10:42:51.194Z,30.35
2022-11-30T10:45:24.876Z,29.23
2022-11-30T10:48:18.914Z,31.63
2022-11-30T10:50:51.686Z,33.65
2022-11-30T10:53:25.066Z,31.00
2022-11-30T10:56:16.125Z,32.30
2022-11-30T10:58:59.976Z,29.88
2022-11-30T11:01:33.988Z,34.75
2022-11-30T11:04:12.938Z,33.78
2022-11-30T11:06:57.008Z,31.52
2022-11-30T11:09:33.946Z,32.10
2022-11-30T11:12:08.580Z,36.58
2022-11-30T11:14:40.228Z,34.78
2022-11-30T11:17:26.157Z,31.80
2022-11-30T11:19:57.740Z,36.67
2022-11-30T11:22:33.626Z,33.95
2022-11-30T11:25:21.728Z,38.58
2022-11-30T11:27:56.045Z,34.35
2022-11-30T11:30:33.081Z,33.60
2022-11-30T11:33:13.788Z,34.47
2022-11-30T11:35:54.333Z,35.80
2022-11-30T11:38:28.824Z,34.92
2022-11-30T11:41:03.858Z,35.85
2022-11-30T11:44:02.609Z,35.65
2022-11-30T11:46:57.613Z,33.35
2022-11-30T11:49:32.561Z,31.33
2022-11-30T11:52:09.112Z,39.55
2022-11-30T11:55:00.708Z,33.00
2022-11-30T11:57:46.393Z,34.03
2022-11-30T12:00:21.699Z,35.78
2022-11-30T12:03:00.627Z,34.28
2022-11-30T12:05:44.191Z,31.25
2022-11-30T12:08:35.962Z,32.10
2022-11-30T12:11:29.741Z,33.10
2022-11-30T12:14:05.986Z,29.67
2022-11-30T12:17:06.923Z,32.63
2022-11-30T12:20:04.362Z,30.20
2022-11-30T12:22:38.928Z,33.35
2022-11-30T12:28:22.556Z,35.53
2022-11-30T12:31:14.527Z,29.98
2022-11-30T12:34:14.323Z,32.22
2022-11-30T12:37:05.711Z,31.45
2022-11-30T12:39:55.712Z,28.52
2022-11-30T12:43:08.748Z,31.15
2022-11-30T12:45:54.145Z,28.60
2022-11-30T12:48:28.593Z,33.03
2022-11-30T12:51:22.838Z,32.00
2022-11-30T12:54:33.462Z,32.80
2022-11-30T12:57:27.617Z,31.50
2022-11-30T13:00:15.871Z,32.88
2022-11-30T13:03:24.807Z,33.65
2022-11-30T13:06:02.951Z,31.88
2022-11-30T13:09:06.801Z,34.70
2022-11-30T13:11:43.454Z,32.95
2022-11-30T13:14:27.693Z,35.55
2022-11-30T13:17:07.513Z,35.25
2022-11-30T13:19:56.736Z,31.63
2022-11-30T13:22:52.809Z,32.97
2022-11-30T13:26:07.018Z,32.63
2022-11-30T13:28:46.409Z,35.33
2022-11-30T13:31:44.810Z,32.90
2022-11-30T13:34:46.489Z,36.45
2022-11-30T13:37:27.255Z,34.38
2022-11-30T13:40:00.296Z,31.58
2022-11-30T13:42:51.301Z,35.70
2022-11-30T13:45:36.448Z,34.53
2022-11-30T13:48:29.605Z,33.85
2022-11-30T13:51:08.323Z,32.28
2022-11-30T13:53:43.193Z,34.00
2022-11-30T13:59:25.891Z,30.83
2022-11-30T14:02:43.253Z,36.08
2022-11-30T14:05:17.820Z,32.83
2022-11-30T14:07:53.332Z,34.35
2022-11-30T14:10:35.564Z,34.88
2022-11-30T14:13:18.645Z,33.85
2022-11-30T14:15:50.200Z,33.72
2022-11-30T14:18:23.962Z,32.00
2022-11-30T14:21:09.325Z,35.33
2022-11-30T14:24:19.678Z,34.20
2022-11-30T14:26:52.484Z,37.60
2022-11-30T14:29:39.031Z,32.10
2022-11-30T14:32:35.170Z,37.67
2022-11-30T14:35:12.530Z,37.40
2022-11-30T14:37:53.302Z,37.72
2022-11-30T14:40:30.323Z,33.60
2022-11-30T14:43:04.018Z,37.92
2022-11-30T14:45:36.602Z,32.33
2022-11-30T14:48:13.837Z,36.20
2022-11-30T14:50:49.708Z,36.20
2022-11-30T14:53:34.730Z,38.83
2022-11-30T14:56:44.418Z,36.75
2022-11-30T14:59:47.800Z,36.65
2022-11-30T15:02:38.707Z,35.15
2022-11-30T15:05:17.786Z,36.47
2022-11-30T15:07:53.250Z,37.75
2022-11-30T15:10:39.412Z,34.80
2022-11-30T15:13:20.849Z,35.22
2022-11-30T15:15:55.745Z,34.22
2022-11-30T15:18:27.698Z,35.10
2022-11-30T15:21:04.127Z,38.50
2022-11-30T15:23:44.550Z,34.55
2022-11-30T15:26:42.393Z,41.70
2022-11-30T15:29:42.228Z,37.50
2022-11-30T15:32:23.080Z,35.25
2022-11-30T15:35:03.498Z,36.97
2022-11-30T15:37:42.951Z,40.65
2022-11-30T15:40:23.120Z,36.10
2022-11-30T15:42:54.882Z,35.75
2022-11-30T15:45:33.607Z,36.88
2022-11-30T15:48:28.203Z,36.22
2022-11-30T15:51:02.747Z,35.80
2022-11-30T15:53:48.397Z,35.55
2022-11-30T15:56:24.868Z,37.13
2022-11-30T15:59:26.715Z,37.20
2022-11-30T16:02:23.831Z,36.63
2022-11-30T16:05:01.304Z,38.38
2022-11-30T16:08:03.722Z,41.92
2022-11-30T16:10:37.995Z,39.53
2022-11-30T16:13:17.623Z,41.50
2022-11-30T16:15:52.660Z,40.38
2022-11-30T16:18:27.130Z,40.85
2022-11-30T16:21:02.474Z,43.33
2022-11-30T16:23:35.174Z,39.47
2022-11-30T16:26:28.879Z,42.22
2022-11-30T16:29:07.463Z,37.22
2022-11-30T16:31:39.300Z,39.67
2022-11-30T16:34:11.969Z,40.60
2022-11-30T16:36:46.219Z,38.13
2022-11-30T16:39:17.922Z,40.78
2022-11-30T16:41:49.752Z,34.58
2022-11-30T16:44:23.817Z,40.95
2022-11-30T16:46:58.459Z,37.38
2022-11-30T16:49:30.051Z,36.17
2022-11-30T16:52:01.640Z,35.67
2022-11-30T16:54:33.296Z,39.25
2022-11-30T16:57:04.955Z,36.97
2022-11-30T16:59:42.327Z,34.30
2022-11-30T17:02:19.422Z,39.00
2022-11-30T17:04:51.095Z,40.17
2022-11-30T17:07:22.760Z,40.15
2022-11-30T17:09:57.589Z,36.20
2022-11-30T17:12:30.218Z,37.70
2022-11-30T17:15:02.891Z,39.08
2022-11-30T17:17:34.559Z,37.15
2022-11-30T17:20:07.631Z,36.58
2022-11-30T17:23:04.971Z,37.53
2022-11-30T17:25:39.111Z,37.45
2022-11-30T17:28:10.764Z,37.63
2022-11-30T17:30:42.608Z,36.78
2022-11-30T17:33:17.217Z,36.70
2022-11-30T17:35:49.095Z,40.65
2022-11-30T17:38:20.688Z,39.05
2022-11-30T17:40:52.377Z,39.40
2022-11-30T17:43:24.231Z,38.40
2022-11-30T17:45:58.928Z,41.45
2022-11-30T17:48:32.106Z,43.38
2022-11-30T17:51:06.133Z,41.92
2022-11-30T17:53:39.119Z,43.58
2022-11-30T17:56:17.015Z,50.10
2022-11-30T17:58:50.406Z,42.03
2022-11-30T18:01:25.470Z,45.45
2022-11-30T18:03:58.095Z,47.90
2022-11-30T18:06:31.735Z,42.20
2022-11-30T18:09:03.433Z,46.70
2022-11-30T18:11:38.283Z,42.42
2022-11-30T18:16:42.076Z,40.75
2022-11-30T18:19:16.452Z,50.90
2022-11-30T18:21:48.177Z,46.13
2022-11-30T18:24:25.749Z,53.78
2022-11-30T18:26:57.620Z,48.55
2022-11-30T18:29:33.503Z,46.22
2022-11-30T18:32:11.496Z,52.22
2022-11-30T18:34:49.075Z,47.67
2022-11-30T18:37:20.960Z,46.60
2022-11-30T18:39:52.566Z,48.70
2022-11-30T18:42:24.240Z,48.78
2022-11-30T18:44:56.136Z,46.53
2022-11-30T18:47:27.838Z,49.17
2022-11-30T18:49:59.425Z,54.30
2022-11-30T18:52:31.044Z,51.70
2022-11-30T18:55:02.698Z,48.20
2022-11-30T18:57:36.375Z,52.35
2022-11-30T19:00:08.927Z,52.80
2022-11-30T19:02:40.598Z,50.67
2022-11-30T19:05:31.445Z,47.65
2022-11-30T19:08:08.756Z,53.90
2022-11-30T19:10:41.445Z,52.08
2022-11-30T19:13:13.037Z,49.70
2022-11-30T19:15:47.095Z,52.38
2022-11-30T19:18:23.001Z,52.95
2022-11-30T19:20:54.968Z,55.03
2022-11-30T19:23:27.802Z,50.35
2022-11-30T19:26:01.482Z,53.53
2022-11-30T19:28:38.045Z,50.67
2022-11-30T19:31:15.052Z,49.92
2022-11-30T19:33:54.288Z,50.80
2022-11-30T19:36:33.111Z,48.70
2022-11-30T19:39:07.669Z,50.47
2022-11-30T19:44:17.177Z,47.00
2022-11-30T19:46:49.022Z,49.28
2022-11-30T19:49:20.646Z,50.15
2022-11-30T19:51:52.353Z,51.72
2022-11-30T19:54:24.232Z,52.88
2022-11-30T19:57:00.577Z,53.40
2022-11-30T19:59:35.089Z,46.85
2022-11-30T20:02:07.800Z,50.10
2022-11-30T20:04:39.923Z,54.75
2022-11-30T20:07:11.558Z,50.85
2022-11-30T20:09:43.219Z,57.78
2022-11-30T20:12:17.708Z,48.67
2022-11-30T20:14:52.238Z,55.45
2022-11-30T20:17:26.746Z,56.50
2022-11-30T20:19:58.484Z,57.63
2022-11-30T20:22:36.064Z,58.53
2022-11-30T20:25:08.002Z,57.25
2022-11-30T20:27:39.672Z,52.90
2022-11-30T20:30:11.494Z,58.67
2022-11-30T20:32:43.834Z,56.50
2022-11-30T20:35:15.533Z,57.45
2022-11-30T20:37:47.191Z,49.63
2022-11-30T20:40:18.916Z,50.45
2022-11-30T20:42:51.634Z,53.38
2022-11-30T20:45:23.526Z,54.35
2022-11-30T20:47:55.433Z,52.28
2022-11-30T20:50:27.032Z,54.88
2022-11-30T20:52:58.600Z,56.50
2022-11-30T20:55:30.276Z,49.88
2022-11-30T20:58:01.903Z,55.05
2022-11-30T21:00:36.273Z,55.30
2022-11-30T21:03:09.973Z,59.22
2022-11-30T21:05:41.678Z,55.67
2022-11-30T21:08:13.355Z,58.28
2022-11-30T21:10:44.966Z,61.72
2022-11-30T21:13:16.654Z,61.05
2022-11-30T21:15:48.366Z,57.30
2022-11-30T21:18:19.945Z,63.47
2022-11-30T21:20:54.314Z,65.75
2022-11-30T21:23:28.915Z,74.03
2022-11-30T21:26:05.337Z,65.45
2022-11-30T21:28:39.803Z,70.40
2022-11-30T21:31:13.170Z,70.78
2022-11-30T21:33:52.464Z,65.78
2022-11-30T21:36:27.411Z,67.30
2022-11-30T21:39:06.675Z,60.85
2022-11-30T21:41:39.825Z,59.78
2022-11-30T21:44:14.068Z,54.58
2022-11-30T21:46:51.652Z,61.20
2022-11-30T21:49:23.938Z,57.65
2022-11-30T21:51:55.738Z,59.83
2022-11-30T21:54:31.921Z,60.30
2022-11-30T21:57:03.857Z,62.13
2022-11-30T21:59:35.478Z,61.53
2022-11-30T22:02:11.440Z,67.25
2022-11-30T22:04:43.158Z,74.10
2022-11-30T22:07:14.777Z,86.53
2022-11-30T22:09:46.488Z,80.75
2022-11-30T22:12:25.589Z,71.32
2022-11-30T22:15:01.245Z,76.43
2022-11-30T22:17:32.890Z,68.65
2022-11-30T22:20:09.438Z,71.03
2022-11-30T22:22:41.037Z,64.13
2022-11-30T22:25:12.648Z,72.18
2022-11-30T22:27:44.231Z,78.85
2022-11-30T22:30:16.021Z,74.70
2022-11-30T22:32:51.829Z,73.85
2022-11-30T22:35:23.418Z,73.50
2022-11-30T22:37:56.145Z,65.07
2022-11-30T22:40:29.738Z,65.18
2022-11-30T22:43:01.601Z,71.97
2022-11-30T22:45:33.319Z,66.05
2022-11-30T22:48:05.192Z,67.00
2022-11-30T22:50:36.856Z,65.43
2022-11-30T22:53:08.447Z,60.85
2022-11-30T22:55:43.732Z,67.78
2022-11-30T22:58:18.311Z,62.13
2022-11-30T23:00:49.902Z,79.13
2022-11-30T23:03:30.415Z,93.28
2022-11-30T23:06:02.709Z,91.70
2022-11-30T23:08:37.279Z,87.78
2022-11-30T23:11:11.505Z,92.50
2022-11-30T23:13:46.657Z,79.72
2022-11-30T23:16:19.009Z,106.47
2022-11-30T23:18:54.693Z,106.07
2022-11-30T23:21:37.380Z,101.25
2022-11-30T23:24:23.860Z,91.50
2022-11-30T23:26:55.465Z,87.88
2022-11-30T23:29:27.099Z,82.22
2022-11-30T23:32:00.807Z,85.78
2022-11-30T23:34:32.452Z,80.05
2022-11-30T23:37:06.189Z,77.88
2022-11-30T23:39:40.607Z,75.00
2022-11-30T23:42:12.221Z,68.60
2022-11-30T23:44:43.814Z,72.68
2022-11-30T23:47:18.698Z,69.82
2022-11-30T23:49:50.738Z,73.50
2022-11-30T23:52:22.450Z,71.45
2022-11-30T23:54:54.120Z,74.93
2022-11-30T23:57:28.508Z,77.15
